Terminal Aerodrome Forecast
Issued by NWS

Home | Current Version | Previous Version | Text Only | Print | Product List | Glossary On
Versions: 1 2 3 4 5 6 7 8 9 10 11 12 13
000
FTUS45 KREV 250520
TAFTVL
TAF
KTVL 250520Z 2506/2606 17005KT P6SM VCSH SCT025 BKN035
     FM251600 18006KT P6SM SCT070 SCT180
     FM260200 VRB03KT P6SM SCT100 BKN180=

USA.gov is the U.S. government's official web portal to all federal, state and local government web resources and services.